sensor_id;sensor_type;location;lat;lon;timestamp;pressure;altitude;pressure_sealevel;temperature;humidity
13486;BME280;6815;59.336;17.998;2022-07-06T00:01:16;100669.66;;;15.17;71.94
13486;BME280;6815;59.336;17.998;2022-07-06T00:03:42;100643.53;;;15.03;72.34
13486;BME280;6815;59.336;17.998;2022-07-06T00:06:07;100678.16;;;15.01;73.08
13486;BME280;6815;59.336;17.998;2022-07-06T00:08:33;100684.50;;;14.71;74.93
13486;BME280;6815;59.336;17.998;2022-07-06T00:11:00;100712.53;;;15.31;72.99
13486;BME280;6815;59.336;17.998;2022-07-06T00:13:26;100700.09;;;15.57;72.22
13486;BME280;6815;59.336;17.998;2022-07-06T00:15:52;100642.38;;;14.85;73.45
13486;BME280;6815;59.336;17.998;2022-07-06T00:18:18;100687.53;;;15.12;73.36
13486;BME280;6815;59.336;17.998;2022-07-06T00:20:43;100545.03;;;14.06;74.50
13486;BME280;6815;59.336;17.998;2022-07-06T00:23:09;100669.00;;;14.84;75.07
13486;BME280;6815;59.336;17.998;2022-07-06T00:25:35;100665.81;;;14.74;75.74
13486;BME280;6815;59.336;17.998;2022-07-06T00:28:01;100702.63;;;15.36;73.85
13486;BME280;6815;59.336;17.998;2022-07-06T00:30:26;100693.50;;;15.18;74.58
13486;BME280;6815;59.336;17.998;2022-07-06T00:32:52;100691.31;;;15.04;75.45
13486;BME280;6815;59.336;17.998;2022-07-06T00:35:18;100693.28;;;15.24;74.17
13486;BME280;6815;59.336;17.998;2022-07-06T00:37:44;100686.06;;;15.28;73.70
13486;BME280;6815;59.336;17.998;2022-07-06T00:40:09;100684.84;;;14.87;75.45
13486;BME280;6815;59.336;17.998;2022-07-06T00:42:43;100670.22;;;15.00;74.70
13486;BME280;6815;59.336;17.998;2022-07-06T00:45:11;100640.84;;;14.79;74.98
13486;BME280;6815;59.336;17.998;2022-07-06T00:47:39;100636.84;;;14.66;75.58
13486;BME280;6815;59.336;17.998;2022-07-06T00:50:05;100650.09;;;14.93;74.47
13486;BME280;6815;59.336;17.998;2022-07-06T00:53:03;100680.59;;;15.33;73.81
13486;BME280;6815;59.336;17.998;2022-07-06T00:55:30;100642.75;;;14.74;75.16
13486;BME280;6815;59.336;17.998;2022-07-06T00:57:57;100681.66;;;15.02;75.24
13486;BME280;6815;59.336;17.998;2022-07-06T01:00:26;100649.06;;;14.97;74.50
13486;BME280;6815;59.336;17.998;2022-07-06T01:02:52;100640.03;;;14.76;75.11
13486;BME280;6815;59.336;17.998;2022-07-06T01:05:18;100625.47;;;14.88;74.14
13486;BME280;6815;59.336;17.998;2022-07-06T01:07:46;100671.00;;;14.77;76.24
13486;BME280;6815;59.336;17.998;2022-07-06T01:10:13;100608.25;;;14.48;75.69
13486;BME280;6815;59.336;17.998;2022-07-06T01:12:41;100627.13;;;14.92;73.89
13486;BME280;6815;59.336;17.998;2022-07-06T01:15:10;100660.72;;;14.66;75.87
13486;BME280;6815;59.336;17.998;2022-07-06T01:17:35;100687.91;;;14.46;77.98
13486;BME280;6815;59.336;17.998;2022-07-06T01:22:44;100610.94;;;14.20;77.33
13486;BME280;6815;59.336;17.998;2022-07-06T01:25:10;100661.47;;;14.43;77.71
13486;BME280;6815;59.336;17.998;2022-07-06T01:27:37;100659.16;;;14.32;78.28
13486;BME280;6815;59.336;17.998;2022-07-06T01:30:09;100663.44;;;14.08;79.48
13486;BME280;6815;59.336;17.998;2022-07-06T01:32:36;100672.16;;;14.42;78.25
13486;BME280;6815;59.336;17.998;2022-07-06T01:35:02;100663.66;;;14.30;79.13
13486;BME280;6815;59.336;17.998;2022-07-06T01:37:28;100652.97;;;14.32;78.62
13486;BME280;6815;59.336;17.998;2022-07-06T01:39:57;100664.03;;;14.46;77.86
13486;BME280;6815;59.336;17.998;2022-07-06T01:42:23;100692.66;;;14.65;78.17
13486;BME280;6815;59.336;17.998;2022-07-06T01:44:48;100689.59;;;14.49;78.50
13486;BME280;6815;59.336;17.998;2022-07-06T01:47:13;100644.59;;;14.18;79.02
13486;BME280;6815;59.336;17.998;2022-07-06T01:49:39;100676.38;;;14.47;78.91
13486;BME280;6815;59.336;17.998;2022-07-06T01:52:05;100613.59;;;14.20;78.27
13486;BME280;6815;59.336;17.998;2022-07-06T01:54:30;100648.84;;;13.95;80.16
13486;BME280;6815;59.336;17.998;2022-07-06T01:56:56;100661.38;;;14.18;80.13
13486;BME280;6815;59.336;17.998;2022-07-06T01:59:21;100685.75;;;14.59;78.57
13486;BME280;6815;59.336;17.998;2022-07-06T02:01:46;100637.97;;;14.31;78.34
13486;BME280;6815;59.336;17.998;2022-07-06T02:04:12;100672.19;;;14.40;78.98
13486;BME280;6815;59.336;17.998;2022-07-06T02:06:37;100647.88;;;14.26;78.91
13486;BME280;6815;59.336;17.998;2022-07-06T02:09:03;100695.34;;;14.63;78.11
13486;BME280;6815;59.336;17.998;2022-07-06T02:11:28;100541.09;;;13.91;77.33
13486;BME280;6815;59.336;17.998;2022-07-06T02:13:54;100513.97;;;13.83;77.62
13486;BME280;6815;59.336;17.998;2022-07-06T02:16:19;100519.03;;;13.62;78.04
13486;BME280;6815;59.336;17.998;2022-07-06T02:18:44;100659.88;;;14.09;80.25
13486;BME280;6815;59.336;17.998;2022-07-06T02:21:10;100675.59;;;14.16;80.17
13486;BME280;6815;59.336;17.998;2022-07-06T02:23:35;100650.38;;;14.02;80.55
13486;BME280;6815;59.336;17.998;2022-07-06T02:26:01;100650.19;;;14.08;80.67
13486;BME280;6815;59.336;17.998;2022-07-06T02:28:26;100609.94;;;13.94;80.21
13486;BME280;6815;59.336;17.998;2022-07-06T02:30:52;100651.03;;;14.10;80.78
13486;BME280;6815;59.336;17.998;2022-07-06T02:33:19;100615.59;;;14.11;79.76
13486;BME280;6815;59.336;17.998;2022-07-06T02:35:44;100638.41;;;14.45;79.31
13486;BME280;6815;59.336;17.998;2022-07-06T02:38:09;100625.09;;;13.91;80.94
13486;BME280;6815;59.336;17.998;2022-07-06T02:40:35;100588.22;;;13.83;80.52
13486;BME280;6815;59.336;17.998;2022-07-06T02:43:01;100657.69;;;14.22;81.27
13486;BME280;6815;59.336;17.998;2022-07-06T02:45:26;100641.94;;;14.18;81.01
13486;BME280;6815;59.336;17.998;2022-07-06T02:47:52;100671.72;;;14.55;79.76
13486;BME280;6815;59.336;17.998;2022-07-06T02:50:21;100668.31;;;14.22;81.19
13486;BME280;6815;59.336;17.998;2022-07-06T02:52:46;100629.63;;;14.15;80.30
13486;BME280;6815;59.336;17.998;2022-07-06T02:55:12;100659.50;;;14.22;80.56
13486;BME280;6815;59.336;17.998;2022-07-06T02:57:38;100634.47;;;14.02;81.02
13486;BME280;6815;59.336;17.998;2022-07-06T03:00:04;100661.25;;;14.49;79.88
13486;BME280;6815;59.336;17.998;2022-07-06T03:02:30;100641.66;;;14.27;79.41
13486;BME280;6815;59.336;17.998;2022-07-06T03:04:56;100618.72;;;14.24;79.20
13486;BME280;6815;59.336;17.998;2022-07-06T03:07:22;100650.09;;;14.40;79.54
13486;BME280;6815;59.336;17.998;2022-07-06T03:09:47;100632.56;;;14.34;79.91
13486;BME280;6815;59.336;17.998;2022-07-06T03:12:13;100638.16;;;13.97;81.63
13486;BME280;6815;59.336;17.998;2022-07-06T03:14:39;100633.06;;;13.91;82.04
13486;BME280;6815;59.336;17.998;2022-07-06T03:17:04;100614.25;;;13.98;81.53
13486;BME280;6815;59.336;17.998;2022-07-06T03:19:29;100609.81;;;13.71;82.79
13486;BME280;6815;59.336;17.998;2022-07-06T03:21:55;100649.78;;;13.93;81.95
13486;BME280;6815;59.336;17.998;2022-07-06T03:24:20;100626.72;;;13.67;82.98
13486;BME280;6815;59.336;17.998;2022-07-06T03:26:46;100530.63;;;12.99;83.31
13486;BME280;6815;59.336;17.998;2022-07-06T03:29:11;100661.88;;;13.73;83.47
13486;BME280;6815;59.336;17.998;2022-07-06T03:31:37;100611.13;;;13.56;83.28
13486;BME280;6815;59.336;17.998;2022-07-06T03:34:02;100577.03;;;13.43;83.48
13486;BME280;6815;59.336;17.998;2022-07-06T03:36:27;100602.97;;;13.63;83.24
13486;BME280;6815;59.336;17.998;2022-07-06T03:38:53;100669.38;;;13.88;84.21
13486;BME280;6815;59.336;17.998;2022-07-06T03:41:18;100642.28;;;13.79;83.60
13486;BME280;6815;59.336;17.998;2022-07-06T03:43:44;100666.00;;;13.82;84.33
13486;BME280;6815;59.336;17.998;2022-07-06T03:46:09;100576.22;;;13.41;84.69
13486;BME280;6815;59.336;17.998;2022-07-06T03:48:35;100619.09;;;13.85;84.16
13486;BME280;6815;59.336;17.998;2022-07-06T03:51:00;100632.56;;;14.06;83.40
13486;BME280;6815;59.336;17.998;2022-07-06T03:53:25;100623.03;;;14.00;83.59
13486;BME280;6815;59.336;17.998;2022-07-06T03:55:51;100642.88;;;14.17;83.07
13486;BME280;6815;59.336;17.998;2022-07-06T03:58:36;100633.97;;;13.89;84.29
13486;BME280;6815;59.336;17.998;2022-07-06T04:01:01;100630.88;;;14.03;83.50
13486;BME280;6815;59.336;17.998;2022-07-06T04:03:27;100658.06;;;14.11;83.69
13486;BME280;6815;59.336;17.998;2022-07-06T04:05:52;100623.56;;;13.83;84.19
13486;BME280;6815;59.336;17.998;2022-07-06T04:08:18;100621.97;;;14.06;83.08
13486;BME280;6815;59.336;17.998;2022-07-06T04:10:44;100646.66;;;14.36;82.36
13486;BME280;6815;59.336;17.998;2022-07-06T04:13:10;100626.50;;;14.30;81.94
13486;BME280;6815;59.336;17.998;2022-07-06T04:15:35;100621.56;;;14.20;82.73
13486;BME280;6815;59.336;17.998;2022-07-06T04:18:01;100611.63;;;14.25;82.43
13486;BME280;6815;59.336;17.998;2022-07-06T04:20:26;100629.34;;;14.52;81.52
13486;BME280;6815;59.336;17.998;2022-07-06T04:22:52;100667.78;;;14.94;81.10
13486;BME280;6815;59.336;17.998;2022-07-06T04:25:18;100668.50;;;15.24;79.19
13486;BME280;6815;59.336;17.998;2022-07-06T04:27:44;100662.84;;;15.33;79.30
13486;BME280;6815;59.336;17.998;2022-07-06T04:30:09;100635.19;;;15.39;78.37
13486;BME280;6815;59.336;17.998;2022-07-06T04:32:35;100669.38;;;15.48;78.18
13486;BME280;6815;59.336;17.998;2022-07-06T04:35:02;100674.47;;;15.79;76.90
13486;BME280;6815;59.336;17.998;2022-07-06T04:37:28;100671.91;;;15.27;78.45
13486;BME280;6815;59.336;17.998;2022-07-06T04:39:53;100635.25;;;15.12;78.92
13486;BME280;6815;59.336;17.998;2022-07-06T04:42:19;100649.81;;;14.75;81.08
13486;BME280;6815;59.336;17.998;2022-07-06T04:44:44;100633.13;;;15.22;79.25
13486;BME280;6815;59.336;17.998;2022-07-06T04:47:11;100639.47;;;15.43;77.68
13486;BME280;6815;59.336;17.998;2022-07-06T04:49:36;100635.94;;;15.66;77.38
13486;BME280;6815;59.336;17.998;2022-07-06T04:52:02;100640.63;;;15.59;77.81
13486;BME280;6815;59.336;17.998;2022-07-06T04:54:28;100669.47;;;16.17;76.17
13486;BME280;6815;59.336;17.998;2022-07-06T04:56:53;100631.03;;;16.88;72.70
13486;BME280;6815;59.336;17.998;2022-07-06T04:59:18;100672.69;;;17.11;72.00
13486;BME280;6815;59.336;17.998;2022-07-06T05:01:44;100659.66;;;17.45;70.46
13486;BME280;6815;59.336;17.998;2022-07-06T05:04:09;100638.59;;;17.78;68.22
13486;BME280;6815;59.336;17.998;2022-07-06T05:06:35;100675.00;;;17.79;68.33
13486;BME280;6815;59.336;17.998;2022-07-06T05:09:00;100640.22;;;17.62;68.66
13486;BME280;6815;59.336;17.998;2022-07-06T05:11:26;100656.59;;;17.73;68.92
13486;BME280;6815;59.336;17.998;2022-07-06T05:13:52;100662.91;;;17.91;67.29
13486;BME280;6815;59.336;17.998;2022-07-06T05:16:18;100655.91;;;18.07;67.34
13486;BME280;6815;59.336;17.998;2022-07-06T05:18:43;100646.47;;;18.55;66.41
13486;BME280;6815;59.336;17.998;2022-07-06T05:21:09;100617.97;;;18.37;66.39
13486;BME280;6815;59.336;17.998;2022-07-06T05:23:34;100644.22;;;18.10;67.20
13486;BME280;6815;59.336;17.998;2022-07-06T05:26:00;100619.75;;;17.23;69.89
13486;BME280;6815;59.336;17.998;2022-07-06T05:28:25;100614.69;;;18.13;67.64
13486;BME280;6815;59.336;17.998;2022-07-06T05:30:50;100666.44;;;19.35;64.47
13486;BME280;6815;59.336;17.998;2022-07-06T05:33:17;100652.63;;;19.93;61.53
13486;BME280;6815;59.336;17.998;2022-07-06T05:35:42;100628.41;;;19.46;63.48
13486;BME280;6815;59.336;17.998;2022-07-06T05:38:08;100642.31;;;19.85;62.54
13486;BME280;6815;59.336;17.998;2022-07-06T05:40:33;100640.94;;;19.94;61.46
13486;BME280;6815;59.336;17.998;2022-07-06T05:42:59;100644.94;;;20.19;60.35
13486;BME280;6815;59.336;17.998;2022-07-06T05:45:24;100642.22;;;20.66;60.11
13486;BME280;6815;59.336;17.998;2022-07-06T05:47:49;100657.69;;;20.61;58.86
13486;BME280;6815;59.336;17.998;2022-07-06T05:50:33;100638.94;;;20.45;59.76
13486;BME280;6815;59.336;17.998;2022-07-06T05:53:00;100647.06;;;20.90;58.95
13486;BME280;6815;59.336;17.998;2022-07-06T05:55:26;100653.88;;;21.83;56.18
13486;BME280;6815;59.336;17.998;2022-07-06T05:57:52;100655.28;;;22.03;54.63
13486;BME280;6815;59.336;17.998;2022-07-06T06:00:19;100648.03;;;21.76;55.67
13486;BME280;6815;59.336;17.998;2022-07-06T06:02:45;100651.94;;;22.40;54.02
13486;BME280;6815;59.336;17.998;2022-07-06T06:05:11;100661.34;;;22.06;54.39
13486;BME280;6815;59.336;17.998;2022-07-06T06:07:38;100653.03;;;22.38;54.65
13486;BME280;6815;59.336;17.998;2022-07-06T06:10:05;100650.19;;;21.12;56.68
13486;BME280;6815;59.336;17.998;2022-07-06T06:12:31;100646.88;;;20.93;57.64
13486;BME280;6815;59.336;17.998;2022-07-06T06:14:57;100635.38;;;20.61;58.65
13486;BME280;6815;59.336;17.998;2022-07-06T06:17:22;100646.66;;;20.82;57.90
13486;BME280;6815;59.336;17.998;2022-07-06T06:19:47;100638.59;;;21.12;57.26
13486;BME280;6815;59.336;17.998;2022-07-06T06:22:13;100646.22;;;21.91;56.05
13486;BME280;6815;59.336;17.998;2022-07-06T06:24:39;100637.13;;;22.35;55.13
13486;BME280;6815;59.336;17.998;2022-07-06T06:27:04;100647.31;;;22.30;54.60
13486;BME280;6815;59.336;17.998;2022-07-06T06:29:30;100612.75;;;22.24;53.54
13486;BME280;6815;59.336;17.998;2022-07-06T06:31:55;100636.66;;;22.14;54.29
13486;BME280;6815;59.336;17.998;2022-07-06T06:34:20;100646.75;;;22.52;53.22
13486;BME280;6815;59.336;17.998;2022-07-06T06:36:46;100645.72;;;22.67;52.79
13486;BME280;6815;59.336;17.998;2022-07-06T06:39:11;100636.41;;;22.46;53.33
13486;BME280;6815;59.336;17.998;2022-07-06T06:41:37;100644.22;;;22.36;52.71
13486;BME280;6815;59.336;17.998;2022-07-06T06:44:02;100624.69;;;22.20;53.88
13486;BME280;6815;59.336;17.998;2022-07-06T06:46:27;100641.97;;;22.43;53.48
13486;BME280;6815;59.336;17.998;2022-07-06T06:48:53;100641.63;;;22.34;52.80
13486;BME280;6815;59.336;17.998;2022-07-06T06:51:18;100636.59;;;21.87;54.05
13486;BME280;6815;59.336;17.998;2022-07-06T06:53:44;100629.13;;;21.35;55.25
13486;BME280;6815;59.336;17.998;2022-07-06T06:56:09;100653.38;;;21.19;55.31
13486;BME280;6815;59.336;17.998;2022-07-06T06:58:36;100648.81;;;21.64;54.95
13486;BME280;6815;59.336;17.998;2022-07-06T07:01:01;100609.16;;;20.96;56.16
13486;BME280;6815;59.336;17.998;2022-07-06T07:03:27;100644.13;;;20.94;57.32
13486;BME280;6815;59.336;17.998;2022-07-06T07:05:52;100614.81;;;20.61;57.71
13486;BME280;6815;59.336;17.998;2022-07-06T07:08:18;100640.66;;;20.92;57.07
13486;BME280;6815;59.336;17.998;2022-07-06T07:10:43;100642.41;;;20.47;58.51
13486;BME280;6815;59.336;17.998;2022-07-06T07:13:08;100613.91;;;20.15;58.64
13486;BME280;6815;59.336;17.998;2022-07-06T07:15:34;100617.38;;;19.85;59.37
13486;BME280;6815;59.336;17.998;2022-07-06T07:18:00;100612.88;;;20.01;59.96
13486;BME280;6815;59.336;17.998;2022-07-06T07:20:26;100623.22;;;20.23;58.99
13486;BME280;6815;59.336;17.998;2022-07-06T07:22:51;100631.63;;;20.17;59.01
13486;BME280;6815;59.336;17.998;2022-07-06T07:25:16;100602.19;;;19.19;61.30
13486;BME280;6815;59.336;17.998;2022-07-06T07:27:42;100621.25;;;19.13;62.72
13486;BME280;6815;59.336;17.998;2022-07-06T07:30:08;100597.13;;;18.97;62.26
13486;BME280;6815;59.336;17.998;2022-07-06T07:32:33;100605.19;;;19.13;63.10
13486;BME280;6815;59.336;17.998;2022-07-06T07:34:59;100600.06;;;19.59;62.30
13486;BME280;6815;59.336;17.998;2022-07-06T07:37:24;100626.94;;;20.21;61.76
13486;BME280;6815;59.336;17.998;2022-07-06T07:39:49;100604.97;;;20.30;60.32
13486;BME280;6815;59.336;17.998;2022-07-06T07:42:15;100617.44;;;20.31;60.02
13486;BME280;6815;59.336;17.998;2022-07-06T07:44:40;100589.69;;;20.32;59.82
13486;BME280;6815;59.336;17.998;2022-07-06T07:47:06;100600.66;;;20.43;59.33
13486;BME280;6815;59.336;17.998;2022-07-06T07:49:32;100596.31;;;20.56;58.33
13486;BME280;6815;59.336;17.998;2022-07-06T07:51:58;100621.63;;;20.67;58.14
13486;BME280;6815;59.336;17.998;2022-07-06T07:54:23;100595.13;;;20.30;58.14
13486;BME280;6815;59.336;17.998;2022-07-06T07:56:50;100626.50;;;20.90;57.52
13486;BME280;6815;59.336;17.998;2022-07-06T07:59:15;100631.63;;;20.79;57.52
13486;BME280;6815;59.336;17.998;2022-07-06T08:01:41;100635.41;;;20.91;56.02
13486;BME280;6815;59.336;17.998;2022-07-06T08:04:06;100625.47;;;20.77;55.88
13486;BME280;6815;59.336;17.998;2022-07-06T08:06:32;100627.97;;;20.50;56.45
13486;BME280;6815;59.336;17.998;2022-07-06T08:08:57;100611.94;;;20.64;54.48
13486;BME280;6815;59.336;17.998;2022-07-06T08:11:23;100577.47;;;20.42;54.51
13486;BME280;6815;59.336;17.998;2022-07-06T08:13:48;100604.00;;;20.63;54.33
13486;BME280;6815;59.336;17.998;2022-07-06T08:16:14;100594.16;;;20.47;54.08
13486;BME280;6815;59.336;17.998;2022-07-06T08:18:39;100627.97;;;20.50;54.35
13486;BME280;6815;59.336;17.998;2022-07-06T08:21:05;100624.53;;;20.32;54.33
13486;BME280;6815;59.336;17.998;2022-07-06T08:23:30;100601.41;;;20.45;54.40
13486;BME280;6815;59.336;17.998;2022-07-06T08:25:56;100609.44;;;20.61;53.54
13486;BME280;6815;59.336;17.998;2022-07-06T08:28:21;100592.06;;;20.68;53.23
13486;BME280;6815;59.336;17.998;2022-07-06T08:30:47;100625.28;;;20.80;53.39
13486;BME280;6815;59.336;17.998;2022-07-06T08:33:13;100621.56;;;20.37;54.21
13486;BME280;6815;59.336;17.998;2022-07-06T08:35:39;100594.50;;;20.41;54.67
13486;BME280;6815;59.336;17.998;2022-07-06T08:38:04;100615.09;;;20.41;55.42
13486;BME280;6815;59.336;17.998;2022-07-06T08:40:33;100582.34;;;20.36;54.61
13486;BME280;6815;59.336;17.998;2022-07-06T08:43:00;100611.38;;;20.11;55.16
13486;BME280;6815;59.336;17.998;2022-07-06T08:45:25;100587.81;;;20.18;54.90
13486;BME280;6815;59.336;17.998;2022-07-06T08:47:53;100609.22;;;20.34;54.65
13486;BME280;6815;59.336;17.998;2022-07-06T08:50:19;100607.16;;;19.92;55.62
13486;BME280;6815;59.336;17.998;2022-07-06T08:52:47;100609.94;;;19.90;56.19
13486;BME280;6815;59.336;17.998;2022-07-06T08:55:13;100598.09;;;20.10;56.11
13486;BME280;6815;59.336;17.998;2022-07-06T08:57:39;100570.53;;;20.08;55.46
13486;BME280;6815;59.336;17.998;2022-07-06T09:00:09;100570.81;;;19.87;54.93
13486;BME280;6815;59.336;17.998;2022-07-06T09:02:35;100607.59;;;20.16;55.14
13486;BME280;6815;59.336;17.998;2022-07-06T09:05:02;100578.84;;;19.72;54.59
13486;BME280;6815;59.336;17.998;2022-07-06T09:07:29;100601.38;;;19.68;56.24
13486;BME280;6815;59.336;17.998;2022-07-06T09:09:55;100583.38;;;19.54;56.35
13486;BME280;6815;59.336;17.998;2022-07-06T09:12:21;100598.69;;;19.99;55.53
13486;BME280;6815;59.336;17.998;2022-07-06T09:14:47;100561.22;;;19.83;55.64
13486;BME280;6815;59.336;17.998;2022-07-06T09:17:13;100599.44;;;20.33;54.89
13486;BME280;6815;59.336;17.998;2022-07-06T09:19:39;100611.56;;;20.40;54.97
13486;BME280;6815;59.336;17.998;2022-07-06T09:22:04;100549.91;;;20.10;54.63
13486;BME280;6815;59.336;17.998;2022-07-06T09:24:30;100596.22;;;20.12;55.72
13486;BME280;6815;59.336;17.998;2022-07-06T09:26:57;100565.09;;;19.62;56.24
13486;BME280;6815;59.336;17.998;2022-07-06T09:29:32;100597.06;;;19.65;55.71
13486;BME280;6815;59.336;17.998;2022-07-06T09:32:03;100590.50;;;19.71;55.57
13486;BME280;6815;59.336;17.998;2022-07-06T09:34:46;100573.56;;;19.86;55.00
13486;BME280;6815;59.336;17.998;2022-07-06T09:37:12;100591.38;;;20.03;54.77
13486;BME280;6815;59.336;17.998;2022-07-06T09:39:38;100570.50;;;19.45;55.64
13486;BME280;6815;59.336;17.998;2022-07-06T09:42:04;100593.78;;;19.76;55.44
13486;BME280;6815;59.336;17.998;2022-07-06T09:44:39;100594.22;;;19.84;55.78
13486;BME280;6815;59.336;17.998;2022-07-06T09:47:09;100567.97;;;19.75;55.37
13486;BME280;6815;59.336;17.998;2022-07-06T09:49:36;100589.06;;;19.63;55.20
13486;BME280;6815;59.336;17.998;2022-07-06T09:52:04;100575.50;;;19.51;55.08
13486;BME280;6815;59.336;17.998;2022-07-06T09:54:35;100567.63;;;19.65;55.78
13486;BME280;6815;59.336;17.998;2022-07-06T09:57:02;100560.28;;;19.69;55.09
13486;BME280;6815;59.336;17.998;2022-07-06T09:59:30;100571.00;;;19.84;54.10
13486;BME280;6815;59.336;17.998;2022-07-06T10:02:06;100570.03;;;19.70;53.53
13486;BME280;6815;59.336;17.998;2022-07-06T10:04:33;100581.94;;;19.96;53.34
13486;BME280;6815;59.336;17.998;2022-07-06T10:06:59;100586.19;;;20.00;53.83
13486;BME280;6815;59.336;17.998;2022-07-06T10:09:27;100560.28;;;19.84;53.88
13486;BME280;6815;59.336;17.998;2022-07-06T10:12:00;100567.13;;;19.74;53.93
13486;BME280;6815;59.336;17.998;2022-07-06T10:14:29;100580.91;;;19.33;53.95
13486;BME280;6815;59.336;17.998;2022-07-06T10:16:56;100574.88;;;19.46;52.49
13486;BME280;6815;59.336;17.998;2022-07-06T10:19:22;100556.63;;;19.54;52.06
13486;BME280;6815;59.336;17.998;2022-07-06T10:21:48;100583.88;;;19.45;52.19
13486;BME280;6815;59.336;17.998;2022-07-06T10:24:14;100587.69;;;19.56;52.13
13486;BME280;6815;59.336;17.998;2022-07-06T10:26:41;100583.19;;;19.74;51.25
13486;BME280;6815;59.336;17.998;2022-07-06T10:29:07;100560.47;;;19.48;51.96
13486;BME280;6815;59.336;17.998;2022-07-06T10:31:35;100569.97;;;19.38;53.06
13486;BME280;6815;59.336;17.998;2022-07-06T10:34:04;100557.09;;;19.29;53.54
13486;BME280;6815;59.336;17.998;2022-07-06T10:36:31;100546.06;;;19.35;52.64
13486;BME280;6815;59.336;17.998;2022-07-06T10:38:56;100559.03;;;19.58;52.67
13486;BME280;6815;59.336;17.998;2022-07-06T10:41:33;100582.91;;;19.95;51.87
13486;BME280;6815;59.336;17.998;2022-07-06T10:44:18;100553.03;;;19.71;52.84
13486;BME280;6815;59.336;17.998;2022-07-06T10:46:54;100566.00;;;19.78;53.02
13486;BME280;6815;59.336;17.998;2022-07-06T10:49:22;100537.19;;;19.50;54.12
13486;BME280;6815;59.336;17.998;2022-07-06T10:51:48;100566.00;;;19.78;54.36
13486;BME280;6815;59.336;17.998;2022-07-06T10:54:15;100575.25;;;19.55;55.75
13486;BME280;6815;59.336;17.998;2022-07-06T10:56:47;100558.72;;;19.80;55.80
13486;BME280;6815;59.336;17.998;2022-07-06T10:59:18;100539.94;;;19.49;55.33
13486;BME280;6815;59.336;17.998;2022-07-06T11:02:15;100568.31;;;19.69;55.74
13486;BME280;6815;59.336;17.998;2022-07-06T11:04:42;100567.53;;;19.67;55.66
13486;BME280;6815;59.336;17.998;2022-07-06T11:07:13;100571.66;;;19.56;55.00
13486;BME280;6815;59.336;17.998;2022-07-06T11:09:41;100571.97;;;19.50;53.17
13486;BME280;6815;59.336;17.998;2022-07-06T11:12:20;100571.34;;;19.45;51.04
13486;BME280;6815;59.336;17.998;2022-07-06T11:14:50;100570.06;;;19.52;51.30
13486;BME280;6815;59.336;17.998;2022-07-06T11:17:18;100580.75;;;19.52;50.76
13486;BME280;6815;59.336;17.998;2022-07-06T11:19:56;100580.53;;;19.57;50.98
13486;BME280;6815;59.336;17.998;2022-07-06T11:22:22;100584.22;;;19.54;51.88
13486;BME280;6815;59.336;17.998;2022-07-06T11:24:49;100581.22;;;19.60;51.54
13486;BME280;6815;59.336;17.998;2022-07-06T11:27:17;100572.03;;;19.49;51.54
13486;BME280;6815;59.336;17.998;2022-07-06T11:29:43;100550.56;;;19.34;51.33
13486;BME280;6815;59.336;17.998;2022-07-06T11:32:10;100575.69;;;19.63;51.71
13486;BME280;6815;59.336;17.998;2022-07-06T11:34:39;100562.53;;;19.76;52.27
13486;BME280;6815;59.336;17.998;2022-07-06T11:37:15;100559.09;;;19.74;52.76
13486;BME280;6815;59.336;17.998;2022-07-06T11:39:42;100541.72;;;19.81;52.83
13486;BME280;6815;59.336;17.998;2022-07-06T11:42:12;100551.00;;;19.58;53.62
13486;BME280;6815;59.336;17.998;2022-07-06T11:44:39;100536.78;;;19.74;53.39
13486;BME280;6815;59.336;17.998;2022-07-06T11:47:06;100561.13;;;20.01;52.96
13486;BME280;6815;59.336;17.998;2022-07-06T11:49:33;100531.03;;;20.11;52.81
13486;BME280;6815;59.336;17.998;2022-07-06T11:52:00;100556.75;;;20.30;51.76
13486;BME280;6815;59.336;17.998;2022-07-06T11:54:26;100551.22;;;19.87;52.02
13486;BME280;6815;59.336;17.998;2022-07-06T11:56:56;100523.06;;;19.64;52.59
13486;BME280;6815;59.336;17.998;2022-07-06T11:59:32;100547.06;;;19.81;51.81
13486;BME280;6815;59.336;17.998;2022-07-06T12:04:27;100555.81;;;20.31;51.06
13486;BME280;6815;59.336;17.998;2022-07-06T12:06:53;100544.97;;;20.02;51.76
13486;BME280;6815;59.336;17.998;2022-07-06T12:09:18;100517.34;;;19.86;50.93
13486;BME280;6815;59.336;17.998;2022-07-06T12:11:46;100548.72;;;19.84;51.12
13486;BME280;6815;59.336;17.998;2022-07-06T12:14:14;100548.84;;;20.13;50.53
13486;BME280;6815;59.336;17.998;2022-07-06T12:16:40;100518.78;;;20.07;50.18
13486;BME280;6815;59.336;17.998;2022-07-06T12:19:06;100525.88;;;20.08;50.40
13486;BME280;6815;59.336;17.998;2022-07-06T12:21:34;100539.31;;;20.23;50.84
13486;BME280;6815;59.336;17.998;2022-07-06T12:24:00;100546.41;;;20.24;51.43
13486;BME280;6815;59.336;17.998;2022-07-06T12:26:27;100540.03;;;20.10;53.13
13486;BME280;6815;59.336;17.998;2022-07-06T12:29:08;100554.03;;;20.46;52.00
13486;BME280;6815;59.336;17.998;2022-07-06T12:34:17;100538.34;;;19.94;49.66
13486;BME280;6815;59.336;17.998;2022-07-06T12:36:48;100518.31;;;19.69;48.92
13486;BME280;6815;59.336;17.998;2022-07-06T12:39:16;100528.84;;;19.88;49.29
13486;BME280;6815;59.336;17.998;2022-07-06T12:41:53;100524.84;;;19.95;50.01
13486;BME280;6815;59.336;17.998;2022-07-06T12:44:24;100503.06;;;20.01;51.22
13486;BME280;6815;59.336;17.998;2022-07-06T12:47:00;100521.78;;;20.17;50.43
13486;BME280;6815;59.336;17.998;2022-07-06T12:49:26;100489.81;;;19.84;49.29
13486;BME280;6815;59.336;17.998;2022-07-06T12:51:55;100531.16;;;20.10;48.96
13486;BME280;6815;59.336;17.998;2022-07-06T12:54:22;100525.94;;;20.23;49.25
13486;BME280;6815;59.336;17.998;2022-07-06T12:57:05;100530.09;;;20.43;50.93